createdAt,value
2023-06-30T00:00:43.567Z,93142.06
2023-06-30T00:02:15.251Z,93144.63
2023-06-30T00:03:46.877Z,93139.19
2023-06-30T00:05:19.666Z,93132.19
2023-06-30T00:06:51.458Z,93138.28
2023-06-30T00:08:23.134Z,93142.44
2023-06-30T00:09:54.752Z,93136.06
2023-06-30T00:11:26.347Z,93141.47
2023-06-30T00:12:57.986Z,93136.06
2023-06-30T00:14:29.894Z,93136.38
2023-06-30T00:16:01.448Z,93142.69
2023-06-30T00:17:33.070Z,93141.25
2023-06-30T00:19:06.317Z,93137.13
2023-06-30T00:20:38.017Z,93135.69
2023-06-30T00:22:10.148Z,93144.13
2023-06-30T00:23:41.751Z,93139.03
2023-06-30T00:25:15.252Z,93138.41
2023-06-30T00:26:46.987Z,93137.00
2023-06-30T00:28:18.758Z,93144.19
2023-06-30T00:29:50.262Z,93145.97
2023-06-30T00:31:22.366Z,93139.59
2023-06-30T00:32:54.023Z,93138.47
2023-06-30T00:34:25.628Z,93145.00
2023-06-30T00:35:57.167Z,93140.09
2023-06-30T00:37:29.170Z,93133.56
2023-06-30T00:39:00.702Z,93142.78
2023-06-30T00:40:32.213Z,93140.38
2023-06-30T00:42:03.916Z,93139.13
2023-06-30T00:43:35.488Z,93144.06
2023-06-30T00:45:07.291Z,93147.88
2023-06-30T00:46:38.862Z,93146.63
2023-06-30T00:48:10.503Z,93150.13
2023-06-30T00:49:42.125Z,93138.03
2023-06-30T00:51:14.362Z,93144.41
2023-06-30T00:52:47.936Z,93137.63
2023-06-30T00:54:19.532Z,93147.97
2023-06-30T00:55:51.409Z,93131.41
2023-06-30T00:57:22.967Z,93140.63
2023-06-30T00:58:54.783Z,93128.22
2023-06-30T01:00:26.271Z,93137.78
2023-06-30T01:01:58.865Z,93132.38
2023-06-30T01:03:49.693Z,93130.78
2023-06-30T01:05:26.656Z,93129.19
2023-06-30T01:07:11.790Z,93132.25
2023-06-30T01:08:44.459Z,93136.69
2023-06-30T01:10:16.789Z,93136.69
2023-06-30T01:11:48.366Z,93138.28
2023-06-30T01:13:19.958Z,93138.28
2023-06-30T01:14:51.480Z,93138.75
2023-06-30T01:16:23.193Z,93136.22
2023-06-30T01:17:55.380Z,93134.94
2023-06-30T01:19:27.041Z,93132.13
2023-06-30T01:21:01.036Z,93135.78
2023-06-30T01:22:35.174Z,93134.81
2023-06-30T01:24:07.965Z,93129.94
2023-06-30T01:25:39.794Z,93134.06
2023-06-30T01:27:13.764Z,93139.00
2023-06-30T01:28:45.846Z,93141.56
2023-06-30T01:30:17.425Z,93138.53
2023-06-30T01:31:49.033Z,93135.50
2023-06-30T01:33:20.616Z,93138.34
2023-06-30T01:34:52.442Z,93129.78
2023-06-30T01:36:23.930Z,93127.25
2023-06-30T01:37:55.836Z,93133.63
2023-06-30T01:39:27.338Z,93128.72
2023-06-30T01:40:59.077Z,93121.56
2023-06-30T01:42:30.687Z,93124.88
2023-06-30T01:44:02.416Z,93130.59
2023-06-30T01:45:33.956Z,93118.25
2023-06-30T01:47:06.531Z,93112.84
2023-06-30T01:48:38.475Z,93112.03
2023-06-30T01:50:10.438Z,93114.59
2023-06-30T01:51:42.022Z,93109.19
2023-06-30T01:53:13.580Z,93111.09
2023-06-30T01:54:45.088Z,93113.47
2023-06-30T01:56:16.683Z,93105.06
2023-06-30T01:57:48.168Z,93115.69
2023-06-30T01:59:19.742Z,93122.22
2023-06-30T02:00:51.389Z,93105.84
2023-06-30T02:02:22.999Z,93110.94
2023-06-30T02:03:55.299Z,93115.53
2023-06-30T02:05:26.994Z,93114.09
2023-06-30T02:06:58.526Z,93119.03
2023-06-30T02:08:30.241Z,93121.25
2023-06-30T02:10:02.247Z,93110.94
2023-06-30T02:11:34.041Z,93117.91
2023-06-30T02:13:05.624Z,93116.19
2023-06-30T02:14:37.145Z,93115.72
2023-06-30T02:16:08.990Z,93119.34
2023-06-30T02:17:41.765Z,93117.78
2023-06-30T02:19:13.439Z,93118.91
2023-06-30T02:20:44.950Z,93118.41
2023-06-30T02:22:16.618Z,93124.94
2023-06-30T02:23:48.158Z,93120.94
2023-06-30T02:25:19.658Z,93118.09
2023-06-30T02:26:51.253Z,93117.94
2023-06-30T02:28:22.813Z,93122.66
2023-06-30T02:29:54.467Z,93125.06
2023-06-30T02:31:26.551Z,93120.13
2023-06-30T02:32:58.946Z,93121.91
2023-06-30T02:34:30.619Z,93119.81
2023-06-30T02:36:04.278Z,93114.25
2023-06-30T02:37:36.110Z,93106.34
2023-06-30T02:39:07.672Z,93109.97
2023-06-30T02:40:39.701Z,93114.25
2023-06-30T02:42:11.188Z,93117.56
2023-06-30T02:43:44.162Z,93112.03
2023-06-30T02:45:16.148Z,93111.88
2023-06-30T02:46:48.035Z,93112.97
2023-06-30T02:48:19.590Z,93114.09
2023-06-30T02:49:51.119Z,93119.47
2023-06-30T02:51:23.057Z,93107.28
2023-06-30T02:52:54.842Z,93113.47
2023-06-30T02:54:26.487Z,93115.06
2023-06-30T02:55:58.904Z,93108.25
2023-06-30T02:57:30.460Z,93112.19
2023-06-30T02:59:02.009Z,93110.28
2023-06-30T03:00:34.962Z,93114.44
2023-06-30T03:02:06.609Z,93117.44
2023-06-30T03:03:39.440Z,93114.75
2023-06-30T03:05:11.383Z,93107.13
2023-06-30T03:06:43.078Z,93106.16
2023-06-30T03:08:14.618Z,93103.81
2023-06-30T03:09:46.185Z,93111.41
2023-06-30T03:11:17.760Z,93109.66
2023-06-30T03:12:49.771Z,93111.56
2023-06-30T03:14:21.361Z,93107.28
2023-06-30T03:15:53.234Z,93107.28
2023-06-30T03:17:24.834Z,93102.97
2023-06-30T03:18:57.246Z,93102.34
2023-06-30T03:20:28.970Z,93101.88
2023-06-30T03:22:00.800Z,93102.34
2023-06-30T03:23:32.333Z,93107.44
2023-06-30T03:25:05.272Z,93104.91
2023-06-30T03:26:37.091Z,93105.84
2023-06-30T03:28:08.697Z,93108.06
2023-06-30T03:29:40.182Z,93107.13
2023-06-30T03:31:11.731Z,93105.22
2023-06-30T03:32:43.543Z,93107.44
2023-06-30T03:34:15.145Z,93101.72
2023-06-30T03:35:48.199Z,93104.09
2023-06-30T03:37:19.843Z,93110.75
2023-06-30T03:38:51.391Z,93106.66
2023-06-30T03:40:22.941Z,93109.66
2023-06-30T03:41:54.456Z,93101.41
2023-06-30T03:43:25.994Z,93108.22
2023-06-30T03:44:57.576Z,93105.06
2023-06-30T03:46:29.299Z,93112.66
2023-06-30T03:48:00.893Z,93113.03
2023-06-30T03:49:32.581Z,93113.00
2023-06-30T03:51:04.064Z,93111.09
2023-06-30T03:52:35.804Z,93115.84
2023-06-30T03:54:08.281Z,93104.69
2023-06-30T03:55:41.562Z,93110.38
2023-06-30T03:57:13.142Z,93110.53
2023-06-30T03:58:45.136Z,93124.69
2023-06-30T04:00:17.152Z,93120.34
2023-06-30T04:01:48.915Z,93119.84
2023-06-30T04:03:21.020Z,93125.09
2023-06-30T04:04:52.651Z,93122.38
2023-06-30T04:06:24.313Z,93118.88
2023-06-30T04:07:56.018Z,93118.38
2023-06-30T04:09:27.765Z,93116.78
2023-06-30T04:10:59.312Z,93123.72
2023-06-30T04:12:31.352Z,93125.78
2023-06-30T04:14:03.202Z,93126.38
2023-06-30T04:15:34.708Z,93121.75
2023-06-30T04:17:06.791Z,93123.28
2023-06-30T04:18:39.010Z,93127.09
2023-06-30T04:20:11.106Z,93120.81
2023-06-30T04:21:43.150Z,93124.16
2023-06-30T04:23:14.736Z,93121.63
2023-06-30T04:24:46.310Z,93126.75
2023-06-30T04:26:18.349Z,93112.13
2023-06-30T04:27:49.901Z,93118.97
2023-06-30T04:29:21.436Z,93124.38
2023-06-30T04:30:52.957Z,93126.09
2023-06-30T04:32:24.497Z,93120.66
2023-06-30T04:33:56.072Z,93123.53
2023-06-30T04:35:27.637Z,93121.72
2023-06-30T04:36:59.204Z,93113.31
2023-06-30T04:38:31.148Z,93112.44
2023-06-30T04:40:05.901Z,93108.06
2023-06-30T04:41:38.790Z,93110.41
2023-06-30T04:43:13.788Z,93119.28
2023-06-30T04:44:45.576Z,93117.59
2023-06-30T04:46:17.349Z,93110.97
2023-06-30T04:47:48.937Z,93108.50
2023-06-30T04:49:20.472Z,93111.78
2023-06-30T04:50:52.014Z,93111.34
2023-06-30T04:52:23.535Z,93119.72
2023-06-30T04:53:55.249Z,93118.38
2023-06-30T04:55:27.134Z,93112.97
2023-06-30T04:56:58.645Z,93118.28
2023-06-30T04:58:30.214Z,93120.00
2023-06-30T05:00:01.948Z,93110.50
2023-06-30T05:01:34.319Z,93117.88
2023-06-30T05:03:06.016Z,93120.91
2023-06-30T05:04:37.723Z,93118.25
2023-06-30T05:06:09.446Z,93129.69
2023-06-30T05:07:40.984Z,93124.91
2023-06-30T05:09:12.578Z,93125.69
2023-06-30T05:10:44.174Z,93116.50
2023-06-30T05:12:16.918Z,93118.66
2023-06-30T05:13:48.631Z,93122.19
2023-06-30T05:15:20.250Z,93120.00
2023-06-30T05:16:52.434Z,93119.78
2023-06-30T05:18:24.101Z,93122.25
2023-06-30T05:19:55.801Z,93121.00
2023-06-30T05:21:27.419Z,93128.00
2023-06-30T05:22:58.995Z,93115.69
2023-06-30T05:24:30.547Z,93121.56
2023-06-30T05:26:02.168Z,93122.50
2023-06-30T05:27:33.695Z,93130.44
2023-06-30T05:29:07.314Z,93125.00
2023-06-30T05:30:40.451Z,93128.72
2023-06-30T05:32:12.054Z,93131.44
2023-06-30T05:33:43.620Z,93136.72
2023-06-30T05:35:15.240Z,93139.34
2023-06-30T05:36:46.828Z,93140.59
2023-06-30T05:38:18.405Z,93145.84
2023-06-30T05:39:50.232Z,93137.09
2023-06-30T05:41:21.802Z,93139.25
2023-06-30T05:42:53.450Z,93141.25
2023-06-30T05:44:25.656Z,93141.25
2023-06-30T05:45:57.341Z,93141.88
2023-06-30T05:47:28.901Z,93142.94
2023-06-30T05:49:03.568Z,93148.19
2023-06-30T05:50:35.110Z,93145.75
2023-06-30T05:52:08.421Z,93149.78
2023-06-30T05:53:40.542Z,93142.88
2023-06-30T05:55:13.093Z,93151.81
2023-06-30T05:56:44.870Z,93143.38
2023-06-30T05:58:16.382Z,93139.44
2023-06-30T05:59:48.057Z,93148.09
2023-06-30T06:01:19.889Z,93146.03
2023-06-30T06:02:51.600Z,93148.59
2023-06-30T06:04:23.445Z,93147.59
2023-06-30T06:05:55.274Z,93150.22
2023-06-30T06:07:27.152Z,93147.41
2023-06-30T06:08:58.882Z,93151.88
2023-06-30T06:10:31.035Z,93148.97
2023-06-30T06:12:03.546Z,93155.66
2023-06-30T06:13:36.128Z,93149.34
2023-06-30T06:15:10.644Z,93158.13
2023-06-30T06:16:45.995Z,93151.34
2023-06-30T06:18:17.637Z,93153.63
2023-06-30T06:19:49.602Z,93147.81
2023-06-30T06:21:21.388Z,93154.94
2023-06-30T06:22:53.041Z,93147.19
2023-06-30T06:24:24.695Z,93145.41
2023-06-30T06:25:56.325Z,93151.38
2023-06-30T06:27:30.130Z,93155.75
2023-06-30T06:29:01.765Z,93151.41
2023-06-30T06:30:33.921Z,93144.94
2023-06-30T06:32:05.741Z,93156.00
2023-06-30T06:33:37.363Z,93155.00
2023-06-30T06:35:09.094Z,93155.88
2023-06-30T06:36:40.684Z,93150.41
2023-06-30T06:38:12.265Z,93151.28
2023-06-30T06:39:45.590Z,93149.59
2023-06-30T06:41:17.158Z,93144.16
2023-06-30T06:42:48.743Z,93140.50
2023-06-30T06:44:20.450Z,93140.84
2023-06-30T06:45:52.148Z,93137.53
2023-06-30T06:47:42.069Z,93138.66
2023-06-30T06:49:16.306Z,93141.25
2023-06-30T06:50:48.508Z,93135.97
2023-06-30T06:52:20.138Z,93133.75
2023-06-30T06:53:53.179Z,93130.16
2023-06-30T06:55:24.963Z,93128.09
2023-06-30T06:56:56.731Z,93136.25
2023-06-30T06:58:32.011Z,93134.00
2023-06-30T07:00:05.737Z,93132.50
2023-06-30T07:01:37.938Z,93134.19
2023-06-30T07:03:09.686Z,93134.28
2023-06-30T07:04:41.230Z,93127.78
2023-06-30T07:06:13.117Z,93128.59
2023-06-30T07:07:44.844Z,93131.41
2023-06-30T07:09:16.669Z,93122.41
2023-06-30T07:10:48.562Z,93126.06
2023-06-30T07:12:20.117Z,93131.69
2023-06-30T07:13:52.282Z,93127.88
2023-06-30T07:15:24.527Z,93125.63
2023-06-30T07:16:56.555Z,93130.09
2023-06-30T07:18:28.298Z,93128.75
2023-06-30T07:20:00.344Z,93124.63
2023-06-30T07:21:32.980Z,93122.03
2023-06-30T07:23:04.596Z,93122.88
2023-06-30T07:24:43.305Z,93116.53
2023-06-30T07:26:15.620Z,93118.69
2023-06-30T07:27:50.654Z,93117.38
2023-06-30T07:29:22.689Z,93115.75
2023-06-30T07:30:54.402Z,93117.03
2023-06-30T07:32:26.248Z,93117.16
2023-06-30T07:33:57.829Z,93122.38
2023-06-30T07:35:29.778Z,93121.16
2023-06-30T07:37:01.698Z,93110.56
2023-06-30T07:38:33.815Z,93116.13
2023-06-30T07:41:43.758Z,93122.63
2023-06-30T07:43:15.331Z,93124.19
2023-06-30T07:44:47.979Z,93122.63
2023-06-30T07:46:19.715Z,93118.75
2023-06-30T07:47:51.447Z,93120.81
2023-06-30T07:49:23.363Z,93117.59
2023-06-30T07:51:07.813Z,93112.50
2023-06-30T07:52:43.987Z,93113.00
2023-06-30T07:54:16.507Z,93119.69
2023-06-30T07:55:48.617Z,93118.53
2023-06-30T07:57:20.340Z,93115.47
2023-06-30T07:58:52.321Z,93116.28
2023-06-30T08:00:30.138Z,93116.63
2023-06-30T08:02:01.876Z,93116.16
2023-06-30T08:03:34.676Z,93111.47
2023-06-30T08:05:06.984Z,93116.63
2023-06-30T08:07:47.990Z,93114.34
2023-06-30T08:09:20.555Z,93119.81
2023-06-30T08:10:52.203Z,93110.50
2023-06-30T08:16:29.430Z,93110.28
2023-06-30T08:18:01.301Z,93117.31
2023-06-30T08:19:48.153Z,93116.88
2023-06-30T08:21:20.969Z,93112.16
2023-06-30T08:22:52.712Z,93103.97
2023-06-30T08:24:24.862Z,93104.78
2023-06-30T08:25:56.749Z,93096.97
2023-06-30T08:27:28.534Z,93092.25
2023-06-30T08:29:00.164Z,93090.28
2023-06-30T08:30:32.136Z,93093.41
2023-06-30T08:32:04.109Z,93095.38
2023-06-30T08:33:40.384Z,93095.38
2023-06-30T08:35:13.097Z,93089.53
2023-06-30T08:36:45.052Z,93093.06
2023-06-30T08:38:17.214Z,93091.13
2023-06-30T08:39:48.994Z,93082.88
2023-06-30T08:41:21.101Z,93088.75
2023-06-30T08:42:53.168Z,93077.38
2023-06-30T08:44:25.205Z,93084.84
2023-06-30T08:45:56.975Z,93081.31
2023-06-30T08:47:29.813Z,93077.78
2023-06-30T08:49:01.544Z,93079.34
2023-06-30T08:50:34.315Z,93078.94
2023-06-30T08:52:06.642Z,93071.88
2023-06-30T08:53:38.699Z,93071.47
2023-06-30T08:55:11.288Z,93073.06
2023-06-30T08:56:43.191Z,93071.88
2023-06-30T08:58:25.705Z,93075.41
2023-06-30T08:59:59.113Z,93065.16
2023-06-30T09:01:30.837Z,93071.88
2023-06-30T09:03:06.011Z,93075.00
2023-06-30T09:04:37.967Z,93078.91
2023-06-30T09:06:10.038Z,93078.56
2023-06-30T09:07:51.391Z,93073.44
2023-06-30T09:09:27.254Z,93073.41
2023-06-30T09:10:59.670Z,93079.25
2023-06-30T09:12:31.897Z,93075.75
2023-06-30T09:14:05.451Z,93072.22
2023-06-30T09:15:37.476Z,93069.91
2023-06-30T09:17:09.380Z,93074.59
2023-06-30T09:18:41.025Z,93077.75
2023-06-30T09:20:13.190Z,93073.41
2023-06-30T09:21:46.106Z,93071.47
2023-06-30T09:23:18.162Z,93081.28
2023-06-30T09:24:50.048Z,93072.22
2023-06-30T09:26:22.163Z,93075.34
2023-06-30T09:27:56.488Z,93082.81
2023-06-30T09:29:28.293Z,93074.19
2023-06-30T09:31:00.199Z,93085.56
2023-06-30T09:32:32.896Z,93081.66
2023-06-30T09:34:11.701Z,93076.53
2023-06-30T09:35:44.188Z,93068.31
2023-06-30T09:37:16.520Z,93073.03
2023-06-30T09:38:48.176Z,93063.97
2023-06-30T09:40:19.837Z,93069.47
2023-06-30T09:41:52.306Z,93061.97
2023-06-30T09:43:25.229Z,93054.91
2023-06-30T09:44:57.038Z,93043.06
2023-06-30T09:46:29.797Z,93056.78
2023-06-30T09:48:01.603Z,93045.66
2023-06-30T09:49:36.929Z,93054.25
2023-06-30T09:51:08.994Z,93049.03
2023-06-30T09:52:40.692Z,93043.47
2023-06-30T09:54:12.756Z,93048.41
2023-06-30T09:55:53.526Z,93043.13
2023-06-30T09:57:28.760Z,93043.81
2023-06-30T09:59:02.756Z,93041.50
2023-06-30T10:00:36.087Z,93040.75
2023-06-30T10:02:09.374Z,93045.47
2023-06-30T10:03:49.656Z,93050.22
2023-06-30T10:05:21.850Z,93048.78
2023-06-30T10:06:54.037Z,93040.22
2023-06-30T10:08:26.038Z,93037.47
2023-06-30T10:09:58.121Z,93037.41
2023-06-30T10:11:29.925Z,93038.53
2023-06-30T10:13:01.827Z,93031.38
2023-06-30T10:14:34.151Z,93031.28
2023-06-30T10:16:06.627Z,93029.53
2023-06-30T10:17:39.059Z,93030.22
2023-06-30T10:19:11.552Z,93025.56
2023-06-30T10:20:49.140Z,93021.50
2023-06-30T10:22:21.759Z,93022.06
2023-06-30T10:23:53.529Z,93014.81
2023-06-30T10:25:26.222Z,93011.97
2023-06-30T10:26:59.019Z,93016.97
2023-06-30T10:28:30.955Z,93014.69
2023-06-30T10:30:02.745Z,93014.56
2023-06-30T10:31:34.849Z,93011.28
2023-06-30T10:33:06.913Z,93000.22
2023-06-30T10:34:39.203Z,93000.91
2023-06-30T10:36:11.340Z,93005.59
2023-06-30T10:37:43.378Z,93009.53
2023-06-30T10:39:15.534Z,92998.56
2023-06-30T10:40:48.069Z,93000.78
2023-06-30T10:42:21.671Z,92989.56
2023-06-30T10:44:12.245Z,92995.78
2023-06-30T10:46:02.517Z,92997.50
2023-06-30T10:47:38.361Z,92985.06
2023-06-30T10:49:17.987Z,92984.91
2023-06-30T10:50:50.143Z,92987.97
2023-06-30T10:52:28.913Z,92997.06
2023-06-30T10:54:00.610Z,92997.88
2023-06-30T10:55:34.465Z,92994.13
2023-06-30T10:57:07.223Z,92986.81
2023-06-30T10:58:43.405Z,92990.41
2023-06-30T11:00:16.279Z,92981.22
2023-06-30T11:02:07.024Z,92986.31
2023-06-30T11:03:58.109Z,92987.53
2023-06-30T11:05:34.270Z,92986.47
2023-06-30T11:07:08.612Z,92981.97
2023-06-30T11:08:40.408Z,92978.91
2023-06-30T11:10:12.434Z,92978.97
2023-06-30T11:11:53.070Z,92977.50
2023-06-30T11:13:36.738Z,92975.16
2023-06-30T11:15:08.597Z,92983.22
2023-06-30T11:16:59.500Z,92976.16
2023-06-30T11:18:38.147Z,92966.28
2023-06-30T11:20:14.205Z,92968.16
2023-06-30T11:21:48.804Z,92960.47
2023-06-30T11:23:20.876Z,92958.66
2023-06-30T11:24:53.283Z,92961.97
2023-06-30T11:26:25.528Z,92957.78
2023-06-30T11:27:57.939Z,92955.59
2023-06-30T11:29:29.949Z,92947.59
2023-06-30T11:31:01.825Z,92949.53
2023-06-30T11:32:34.848Z,92946.94
2023-06-30T11:34:06.680Z,92937.22
2023-06-30T11:35:38.868Z,92939.84
2023-06-30T11:37:11.050Z,92937.75
2023-06-30T11:38:46.837Z,92946.22
2023-06-30T11:40:19.475Z,92940.81
2023-06-30T11:41:51.435Z,92936.88
2023-06-30T11:43:23.851Z,92938.22
2023-06-30T11:44:57.758Z,92935.59
2023-06-30T11:46:37.623Z,92933.28
2023-06-30T11:48:09.394Z,92942.31
2023-06-30T11:49:41.467Z,92927.41
2023-06-30T11:51:13.474Z,92928.72
2023-06-30T11:52:46.251Z,92932.44
2023-06-30T11:54:17.817Z,92929.63
2023-06-30T11:55:50.798Z,92936.75
2023-06-30T11:57:22.471Z,92933.56
2023-06-30T11:58:54.680Z,92933.09
2023-06-30T12:00:26.489Z,92914.41
2023-06-30T12:01:58.286Z,92924.56
2023-06-30T12:03:30.130Z,92917.75
2023-06-30T12:05:02.833Z,92920.34
2023-06-30T12:06:37.477Z,92919.38
2023-06-30T12:08:09.139Z,92917.66
2023-06-30T12:09:42.206Z,92921.34
2023-06-30T12:11:14.615Z,92922.16
2023-06-30T12:12:59.389Z,92911.56
2023-06-30T12:14:31.822Z,92908.38
2023-06-30T12:16:04.901Z,92911.91
2023-06-30T12:17:37.845Z,92916.69
2023-06-30T12:19:12.201Z,92915.28
2023-06-30T12:20:45.173Z,92912.13
2023-06-30T12:22:24.393Z,92905.56
2023-06-30T12:23:58.396Z,92902.81
2023-06-30T12:25:36.804Z,92914.06
2023-06-30T12:27:11.453Z,92915.94
2023-06-30T12:28:43.100Z,92906.69
2023-06-30T12:30:15.918Z,92906.25
2023-06-30T12:31:48.897Z,92903.22
2023-06-30T12:33:20.748Z,92906.44
2023-06-30T12:34:58.023Z,92912.69
2023-06-30T12:36:30.198Z,92914.34
2023-06-30T12:38:01.906Z,92909.13
2023-06-30T12:39:34.088Z,92906.09
2023-06-30T12:41:05.836Z,92913.13
2023-06-30T12:42:37.444Z,92904.06
2023-06-30T12:44:09.362Z,92901.47
2023-06-30T12:45:41.273Z,92905.06
2023-06-30T12:47:13.197Z,92893.47
2023-06-30T12:48:45.529Z,92901.50
2023-06-30T12:50:18.968Z,92896.50
2023-06-30T12:51:50.752Z,92893.00
2023-06-30T12:53:22.837Z,92883.44
2023-06-30T12:54:54.611Z,92888.91
2023-06-30T12:56:26.958Z,92879.75
2023-06-30T12:57:58.661Z,92882.13
2023-06-30T12:59:30.482Z,92881.78
2023-06-30T13:01:04.891Z,92883.03
2023-06-30T13:02:37.223Z,92876.28
2023-06-30T13:04:09.337Z,92880.34
2023-06-30T13:05:41.836Z,92878.31
2023-06-30T13:07:14.158Z,92882.66
2023-06-30T13:08:46.622Z,92868.16
2023-06-30T13:10:18.727Z,92877.31
2023-06-30T13:11:50.992Z,92870.56
2023-06-30T13:13:23.264Z,92877.00
2023-06-30T13:14:55.365Z,92869.47
2023-06-30T13:16:27.087Z,92881.78
2023-06-30T13:17:58.941Z,92876.00
2023-06-30T13:19:31.022Z,92872.53
2023-06-30T13:21:02.847Z,92877.13
2023-06-30T13:22:36.259Z,92876.91
2023-06-30T13:24:09.939Z,92880.19
2023-06-30T13:25:41.870Z,92871.88
2023-06-30T13:27:14.076Z,92871.81
2023-06-30T13:28:45.744Z,92866.50
2023-06-30T13:30:17.460Z,92866.81
2023-06-30T13:31:50.223Z,92867.81
2023-06-30T13:33:22.970Z,92862.06
2023-06-30T13:34:56.085Z,92861.47
2023-06-30T13:36:29.323Z,92859.72
2023-06-30T13:38:01.015Z,92854.47
2023-06-30T13:39:32.730Z,92859.31
2023-06-30T13:41:04.666Z,92848.22
2023-06-30T13:42:36.350Z,92859.13
2023-06-30T13:44:08.306Z,92853.81
2023-06-30T13:45:40.442Z,92853.38
2023-06-30T13:47:12.246Z,92853.47
2023-06-30T13:48:43.847Z,92847.94
2023-06-30T13:50:16.768Z,92839.50
2023-06-30T13:51:48.714Z,92840.97
2023-06-30T13:53:20.992Z,92840.81
2023-06-30T13:54:53.239Z,92840.31
2023-06-30T13:56:25.029Z,92842.66
2023-06-30T13:57:56.759Z,92835.44
2023-06-30T13:59:28.358Z,92833.75
2023-06-30T14:00:59.957Z,92830.56
2023-06-30T14:02:31.693Z,92821.47
2023-06-30T14:04:04.241Z,92835.31
2023-06-30T14:05:36.299Z,92828.41
2023-06-30T14:07:08.197Z,92822.00
2023-06-30T14:08:39.990Z,92827.91
2023-06-30T14:10:13.356Z,92833.34
2023-06-30T14:11:45.099Z,92825.75
2023-06-30T14:13:16.687Z,92821.16
2023-06-30T14:14:48.797Z,92814.16
2023-06-30T14:16:21.451Z,92816.94
2023-06-30T14:17:53.426Z,92814.53
2023-06-30T14:19:25.197Z,92809.66
2023-06-30T14:20:57.067Z,92806.63
2023-06-30T14:22:28.931Z,92805.44
2023-06-30T14:24:01.153Z,92797.78
2023-06-30T14:25:33.409Z,92797.41
2023-06-30T14:27:05.262Z,92803.41
2023-06-30T14:28:36.992Z,92799.16
2023-06-30T14:30:09.210Z,92797.00
2023-06-30T14:31:40.932Z,92800.28
2023-06-30T14:33:12.818Z,92791.78
2023-06-30T14:34:45.107Z,92799.31
2023-06-30T14:36:16.732Z,92796.97
2023-06-30T14:37:48.957Z,92794.81
2023-06-30T14:39:21.019Z,92787.47
2023-06-30T14:40:53.539Z,92796.34
2023-06-30T14:42:32.101Z,92788.41
2023-06-30T14:44:04.668Z,92790.22
2023-06-30T14:45:36.634Z,92784.53
2023-06-30T14:47:09.910Z,92783.50
2023-06-30T14:48:42.417Z,92787.94
2023-06-30T14:50:14.113Z,92782.94
2023-06-30T14:51:45.690Z,92784.81
2023-06-30T14:53:17.290Z,92782.78
2023-06-30T14:54:48.833Z,92777.16
2023-06-30T14:56:20.693Z,92777.56
2023-06-30T14:57:52.276Z,92771.53
2023-06-30T14:59:23.861Z,92771.63
2023-06-30T15:00:56.005Z,92774.72
2023-06-30T15:02:27.725Z,92766.63
2023-06-30T15:03:59.474Z,92765.22
2023-06-30T15:05:32.326Z,92764.69
2023-06-30T15:07:05.574Z,92765.88
2023-06-30T15:08:37.169Z,92757.66
2023-06-30T15:10:08.969Z,92760.34
2023-06-30T15:11:40.668Z,92761.84
2023-06-30T15:13:12.299Z,92759.19
2023-06-30T15:14:43.856Z,92756.06
2023-06-30T15:16:15.814Z,92754.44
2023-06-30T15:17:47.410Z,92755.44
2023-06-30T15:19:18.998Z,92754.13
2023-06-30T15:20:50.650Z,92750.34
2023-06-30T15:22:22.244Z,92751.41
2023-06-30T15:23:53.850Z,92752.38
2023-06-30T15:25:28.942Z,92748.13
2023-06-30T15:27:00.698Z,92752.38
2023-06-30T15:28:32.374Z,92742.72
2023-06-30T15:30:07.379Z,92753.63
2023-06-30T15:31:39.523Z,92745.16
2023-06-30T15:33:11.210Z,92751.03
2023-06-30T15:34:43.235Z,92748.28
2023-06-30T15:36:14.801Z,92745.50
2023-06-30T15:37:46.405Z,92741.47
2023-06-30T15:39:18.049Z,92744.94
2023-06-30T15:40:51.272Z,92738.34
2023-06-30T15:42:24.738Z,92743.31
2023-06-30T15:43:56.343Z,92739.41
2023-06-30T15:45:27.918Z,92738.22
2023-06-30T15:47:01.638Z,92738.28
2023-06-30T15:48:33.372Z,92733.34
2023-06-30T15:50:05.143Z,92734.53
2023-06-30T15:51:36.860Z,92735.91
2023-06-30T15:53:09.616Z,92735.09
2023-06-30T15:54:41.203Z,92730.47
2023-06-30T15:56:12.853Z,92744.75
2023-06-30T15:57:44.611Z,92736.16
2023-06-30T15:59:16.237Z,92740.66
2023-06-30T16:00:47.910Z,92741.81
2023-06-30T16:02:19.975Z,92737.28
2023-06-30T16:03:51.654Z,92741.50
2023-06-30T16:05:23.940Z,92740.50
2023-06-30T16:06:56.957Z,92745.44
2023-06-30T16:08:29.421Z,92742.47
2023-06-30T16:10:01.229Z,92743.78
2023-06-30T16:11:32.784Z,92736.38
2023-06-30T16:13:07.829Z,92739.22
2023-06-30T16:14:41.722Z,92739.28
2023-06-30T16:16:13.414Z,92732.97
2023-06-30T16:17:45.091Z,92738.53
2023-06-30T16:19:16.816Z,92742.53
2023-06-30T16:20:48.419Z,92736.66
2023-06-30T16:22:20.116Z,92738.59
2023-06-30T16:23:52.145Z,92732.59
2023-06-30T16:25:23.874Z,92740.06
2023-06-30T16:26:55.478Z,92733.75
2023-06-30T16:28:27.098Z,92734.59
2023-06-30T16:30:17.287Z,92733.44
2023-06-30T16:31:48.881Z,92733.16
2023-06-30T16:33:20.633Z,92734.53
2023-06-30T16:34:52.374Z,92735.06
2023-06-30T16:36:23.922Z,92727.25
2023-06-30T16:37:56.328Z,92724.91
2023-06-30T16:39:27.911Z,92723.31
2023-06-30T16:40:59.534Z,92725.94
2023-06-30T16:42:31.120Z,92719.47
2023-06-30T16:44:03.384Z,92715.09
2023-06-30T16:45:35.098Z,92718.66
2023-06-30T16:47:06.797Z,92717.53
2023-06-30T16:48:38.489Z,92710.44
2023-06-30T16:50:10.330Z,92721.94
2023-06-30T16:51:42.963Z,92722.72
2023-06-30T16:53:14.581Z,92717.66
2023-06-30T16:54:46.928Z,92713.75
2023-06-30T16:56:18.537Z,92715.38
2023-06-30T16:57:50.077Z,92714.94
2023-06-30T16:59:21.606Z,92714.66
2023-06-30T17:00:53.624Z,92727.34
2023-06-30T17:02:25.293Z,92720.75
2023-06-30T17:03:57.256Z,92712.50
2023-06-30T17:05:28.865Z,92705.78
2023-06-30T17:07:00.584Z,92696.72
2023-06-30T17:08:32.476Z,92695.16
2023-06-30T17:10:06.004Z,92693.69
2023-06-30T17:11:37.999Z,92697.28
2023-06-30T17:13:09.617Z,92695.41
2023-06-30T17:14:42.997Z,92700.59
2023-06-30T17:16:15.232Z,92690.50
2023-06-30T17:17:46.885Z,92691.38
2023-06-30T17:19:18.432Z,92701.69
2023-06-30T17:20:50.146Z,92692.72
2023-06-30T17:22:21.818Z,92691.66
2023-06-30T17:23:53.627Z,92700.78
2023-06-30T17:25:25.206Z,92707.94
2023-06-30T17:26:57.028Z,92697.72
2023-06-30T17:28:28.539Z,92702.47
2023-06-30T17:30:00.071Z,92704.09
2023-06-30T17:31:32.354Z,92699.44
2023-06-30T17:33:04.397Z,92694.31
2023-06-30T17:34:36.054Z,92696.28
2023-06-30T17:36:09.913Z,92698.66
2023-06-30T17:37:42.924Z,92703.47
2023-06-30T17:39:14.921Z,92691.69
2023-06-30T17:40:46.961Z,92698.88
2023-06-30T17:42:18.876Z,92707.94
2023-06-30T17:43:50.664Z,92707.19
2023-06-30T17:45:22.416Z,92704.50
2023-06-30T17:46:54.310Z,92692.00
2023-06-30T17:48:25.948Z,92698.28
2023-06-30T17:49:57.670Z,92691.31
2023-06-30T17:51:29.261Z,92699.25
2023-06-30T17:53:00.971Z,92701.66
2023-06-30T17:54:32.537Z,92701.03
2023-06-30T17:56:04.264Z,92696.41
2023-06-30T17:57:36.003Z,92695.69
2023-06-30T17:59:08.077Z,92692.63
2023-06-30T18:00:39.693Z,92693.47
2023-06-30T18:02:11.477Z,92690.78
2023-06-30T18:03:43.319Z,92690.00
2023-06-30T18:05:15.178Z,92685.69
2023-06-30T18:07:05.210Z,92687.31
2023-06-30T18:08:37.248Z,92690.06
2023-06-30T18:10:12.067Z,92680.66
2023-06-30T18:11:43.629Z,92694.44
2023-06-30T18:13:15.248Z,92686.22
2023-06-30T18:14:47.137Z,92692.09